Latest Coastal Weather Observations for Ngayawili (Elcho Island)

IDD60701

Issued at 6:11 am CST Sunday 5 July 2015 (issued every 10 minutes, with the page automatically refreshed every 10 minutes)

About coastal observations | Map of coastal stations | Coastal observations for NT | Marine services | Other Formats
Station Details ID: 014517 Name: NGAYAWILI Lat: -12.00 Lon: 135.57 Height: 8.1 m
Data from the previous 72 hours. | See also: Recent months at Ngayawili (Elcho Island)
Date/Time
CST
Temp

°C
Wind Pressure Rain
since 9am
mm
Weather Cloud Vis
km
Sea
Height
m
Swell
Dir
 
Speed
knots
Gust
knots
hPa Trend Height
m
Period
s
Dir
05/06:00am 19.4 SSE 4 5 1013.3 - 0.0 - - - - - - -
05/05:30am 19.3 SSE 4 5 1013.2 - 0.0 - - - - - - -
05/05:00am 19.4 ESE 1 4 1013.1 - 0.0 - - - - - - -
05/04:30am 20.6 CALM 0 0 1013.0 - 0.0 - - - - - - -
05/04:00am 20.7 ESE 3 5 1013.1 - 0.0 - - - - - - -
05/03:30am 20.9 SE 3 4 1013.2 - 0.0 - - - - - - -
05/03:00am 21.2 CALM 0 0 1013.3 - 0.0 - - - - - - -
05/02:30am 21.5 SE 4 5 1013.3 - 0.0 - - - - - - -
05/02:00am 22.1 SE 4 6 1013.4 - 0.0 - - - - - - -
05/01:30am 22.7 SE 5 7 1013.5 - 0.0 - - - - - - -
05/01:00am 23.1 ESE 6 9 1013.6 - 0.0 - - - - - - -
05/12:30am 22.7 SE 6 8 1013.6 - 0.0 - - - - - - -
05/12:00am 22.7 ESE 5 6 1013.6 - 0.0 - - - - - - -
 
Date/Time
CST
Temp

°C
Wind Pressure Rain
since 9am
mm
Weather Cloud Vis
km
Sea
Height
m
Swell
Dir
 
Speed
knots
Gust
knots
hPa Trend Height
m
Period
s
Dir
04/11:30pm 22.8 SE 5 7 1013.7 - 0.0 - - - - - - -
04/11:00pm 23.0 ESE 5 8 1013.6 - 0.0 - - - - - - -
04/10:30pm 23.1 ESE 5 7 1013.9 - 0.0 - - - - - - -
04/10:00pm 23.5 ESE 6 10 1013.9 - 0.0 - - - - - - -
04/09:30pm 23.8 ESE 8 13 1013.9 - 0.0 - - - - - - -
04/09:00pm 23.9 ESE 8 13 1013.7 - 0.0 - - - - - - -
04/08:30pm 24.1 ESE 9 14 1013.3 - 0.0 - - - - - - -
04/08:00pm 24.5 ESE 9 17 1013.0 - 0.0 - - - - - - -
04/07:30pm 24.2 E 5 8 1012.8 - 0.0 - - - - - - -
04/07:00pm 24.7 ENE 8 11 1012.5 - 0.0 - - - - - - -
04/06:30pm 25.4 ENE 6 10 1012.1 - 0.0 - - - - - - -
04/06:00pm 26.8 ESE 8 12 1011.8 - 0.0 - - - - - - -
04/05:30pm 27.5 E 8 14 1011.5 - 0.0 - - - - - - -
04/05:00pm 28.0 ESE 8 13 1011.3 - 0.0 - - - - - - -
04/04:30pm 28.5 E 10 14 1011.0 - 0.0 - - - - - - -
04/04:00pm 29.0 E 9 14 1010.9 - 0.0 - - - - - - -
04/03:30pm 29.0 E 9 14 1010.8 - 0.0 - - - - - - -
04/03:00pm 29.1 ESE 9 15 1010.8 - 0.0 - - - - - - -
04/02:30pm 29.3 E 9 15 1011.1 - 0.0 - - - - - - -
04/02:00pm 28.7 E 9 15 1011.5 - 0.0 - - - - - - -
04/01:30pm 29.6 ESE 8 14 1011.9 - 0.0 - - - - - - -
04/01:00pm 29.4 E 8 17 1012.4 - 0.0 - - - - - - -
04/12:30pm 28.6 SSE 8 12 1012.8 - 0.0 - - - - - - -
04/12:00pm 27.6 SE 9 13 1013.4 - 0.0 - - - - - - -
04/11:30am 27.0 SE 9 13 1013.9 - 0.0 - - - - - - -
04/11:00am 26.1 SSE 10 13 1014.3 - 0.0 - - - - - - -
04/10:30am 24.8 SE 11 16 1014.7 - 0.0 - - - - - - -
04/10:00am 24.4 SE 12 17 1014.8 - 0.0 - - - - - - -
04/09:30am 23.9 SSE 10 15 1014.8 - 0.0 - - - - - - -
04/09:00am 22.7 SSE 9 13 1015.2 - 0.0 - - - - - - -
04/08:30am 21.7 SSE 9 13 1015.1 - 0.0 - - - - - - -
04/08:00am 20.7 S 7 10 1015.0 - 0.0 - - - - - - -
04/07:30am 19.7 S 5 7 1014.9 - 0.0 - - - - - - -
04/07:00am 19.2 S 5 7 1014.6 - 0.0 - - - - - - -
04/06:30am 19.7 S 6 9 1014.6 - 0.0 - - - - - - -
04/06:00am 19.7 S 6 9 1014.3 - 0.0 - - - - - - -
04/05:30am 19.7 S 5 7 1014.6 - 0.0 - - - - - - -
04/05:00am 19.2 S 5 7 1014.6 - 0.0 - - - - - - -
04/04:30am 18.9 S 5 7 1014.3 - 0.0 - - - - - - -
04/04:00am 18.2 S 5 6 1014.1 - 0.0 - - - - - - -
04/03:30am 18.4 S 5 5 1014.2 - 0.0 - - - - - - -
04/03:00am 18.7 S 4 5 1014.1 - 0.0 - - - - - - -
04/02:30am 18.7 S 3 3 1014.2 - 0.0 - - - - - - -
04/02:00am 19.2 S 3 4 1014.6 - 0.0 - - - - - - -
04/01:30am 19.8 S 2 3 1014.8 - 0.0 - - - - - - -
04/01:00am 20.5 S 4 5 1014.8 - 0.0 - - - - - - -
04/12:30am 21.1 SSE 5 7 1014.9 - 0.0 - - - - - - -
04/12:00am 21.9 SE 8 11 1015.2 - 0.0 - - - - - - -
 
Date/Time
CST
Temp

°C
Wind Pressure Rain
since 9am
mm
Weather Cloud Vis
km
Sea
Height
m
Swell
Dir
 
Speed
knots
Gust
knots
hPa Trend Height
m
Period
s
Dir
03/11:30pm 22.0 SE 7 10 1015.2 - 0.0 - - - - - - -
03/11:00pm 22.3 SE 9 12 1015.3 - 0.0 - - - - - - -
03/10:30pm 22.6 SE 8 11 1015.3 - 0.0 - - - - - - -
03/10:00pm 22.9 SE 8 13 1015.2 - 0.0 - - - - - - -
03/09:30pm 23.2 SE 8 13 1015.3 - 0.0 - - - - - - -
03/09:00pm 23.3 SE 7 12 1015.0 - 0.0 - - - - - - -
03/08:30pm 23.5 SE 7 9 1014.6 - 0.0 - - - - - - -
03/08:00pm 24.1 SE 7 12 1014.3 - 0.0 - - - - - - -
03/07:30pm 24.4 SE 9 14 1013.9 - 0.0 - - - - - - -
03/07:00pm 24.8 SE 9 13 1013.5 - 0.0 - - - - - - -
03/06:30pm 25.3 SE 9 15 1013.1 - 0.0 - - - - - - -
03/06:00pm 26.0 SE 10 17 1012.7 - 0.0 - - - - - - -
03/05:30pm 26.8 SE 11 19 1012.4 - 0.0 - - - - - - -
03/05:00pm 27.3 ESE 9 18 1012.1 - 0.0 - - - - - - -
03/04:30pm 27.9 ESE 11 19 1011.9 - 0.0 - - - - - - -
03/04:00pm 27.9 ESE 11 19 1011.9 - 0.0 - - - - - - -
03/03:30pm 28.8 ESE 9 17 1012.1 - 0.0 - - - - - - -
03/03:00pm 29.1 ESE 10 16 1012.3 - 0.0 - - - - - - -
03/02:30pm 29.5 ESE 11 17 1012.6 - 0.0 - - - - - - -
03/02:00pm 28.6 SE 13 17 1013.1 - 0.0 - - - - - - -
03/01:30pm 29.0 SE 11 17 1013.5 - 0.0 - - - - - - -
03/01:00pm 28.7 SE 10 17 1014.0 - 0.0 - - - - - - -
03/12:30pm 28.6 SE 12 19 1014.4 - 0.0 - - - - - - -
03/12:00pm 27.8 SE 12 19 1015.0 - 0.0 - - - - - - -
03/11:30am 27.8 SE 12 19 1015.5 - 0.0 - - - - - - -
03/11:00am 27.1 SE 12 19 1015.9 - 0.0 - - - - - - -
03/10:30am 27.0 SE 10 19 1016.2 - 0.0 - - - - - - -
03/10:00am 25.7 SE 11 17 1016.4 - 0.0 - - - - - - -
03/09:30am 25.0 SE 9 14 1016.5 - 0.0 - - - - - - -
03/09:00am 24.0 SE 9 14 1016.5 - - - - - - - - -
03/08:30am 23.0 SSE 8 11 1016.3 - - - - - - - - -
03/08:00am 21.5 SSE 5 7 1016.0 - - - - - - - - -
03/07:30am 19.8 SSE 5 5 1015.6 - - - - - - - - -
03/07:00am 19.6 SSE 3 4 1015.5 - - - - - - - - -
03/06:30am 19.6 SSE 4 4 1015.1 - - - - - - - - -
03/06:00am 20.0 SSE 3 4 1015.0 - - - - - - - - -
03/05:30am 20.5 SSE 3 5 1014.8 - - - - - - - - -
03/05:00am 20.3 SSE 3 4 1014.6 - - - - - - - - -
03/04:30am 21.4 CALM 0 0 1014.4 - - - - - - - - -
03/04:00am 21.7 SE 4 5 1014.4 - - - - - - - - -
03/03:30am 21.9 SE 5 6 1014.6 - - - - - - - - -
03/03:00am 22.0 ESE 4 6 1014.8 - 0.0 - - - - - - -
03/02:30am 22.4 SE 5 7 1015.1 - - - - - - - - -
03/02:00am 22.6 SE 6 9 1015.4 - - - - - - - - -
03/01:30am 22.9 SE 7 11 1015.8 - - - - - - - - -
03/01:00am 23.0 SE 6 8 1015.9 - - - - - - - - -
03/12:30am 23.3 SE 5 7 1016.2 - - - - - - - - -
03/12:00am 23.4 SE 7 9 1016.2 - - - - - - - - -
 
Date/Time
CST
Temp

°C
Wind Pressure Rain
since 9am
mm
Weather Cloud Vis
km
Sea
Height
m
Swell
Dir
 
Speed
knots
Gust
knots
hPa Trend Height
m
Period
s
Dir
02/11:30pm 23.4 SE 7 11 1016.3 - - - - - - - - -
02/11:00pm 23.6 SE 7 11 1016.4 - - - - - - - - -
02/10:30pm 23.8 SE 7 11 1016.5 - - - - - - - - -
02/10:00pm 24.2 SSE 6 9 1016.5 - - - - - - - - -
02/09:30pm 24.5 ESE 7 13 1016.4 - - - - - - - - -
02/09:00pm 24.8 ESE 7 14 1016.0 - 0.0 - - - - - - -
02/08:30pm 25.3 ESE 8 15 1015.7 - - - - - - - - -
02/08:00pm 25.7 ESE 9 15 1015.5 - - - - - - - - -
02/07:30pm 26.0 ESE 8 15 1015.2 - - - - - - - - -
02/07:00pm 26.3 ESE 7 13 1015.0 - - - - - - - - -
02/06:30pm 26.6 ESE 8 13 1014.4 - - - - - - - - -
02/06:00pm 27.1 ESE 7 12 1014.1 - - - - - - - - -
02/05:30pm 27.6 ESE 7 11 1014.0 - - - - - - - - -
02/05:00pm 28.0 ESE 9 14 1013.7 - - - - - - - - -
02/04:30pm 28.3 SE 10 16 1013.6 - - - - - - - - -
02/04:00pm 28.8 ESE 9 15 1013.6 - - - - - - - - -
02/03:30pm 29.0 SE 10 17 1013.7 - - - - - - - - -
02/03:00pm 29.0 SE 11 19 1013.8 - - - - - - - - -
02/02:30pm 29.1 SE 13 21 1014.1 - - - - - - - - -
02/02:00pm 29.4 SE 13 19 1014.4 - - - - - - - - -
02/01:30pm 29.2 SE 12 19 1014.8 - - - - - - - - -

Other Formats:

Comma delimited format used in spreadsheet applications
http://www.bom.gov.au/fwo/IDD60701/IDD60701.95146.axf

JavaScript Object Notation format (JSON) in row-major order
http://www.bom.gov.au/fwo/IDD60701/IDD60701.95146.json